createdAt,value
2022-11-15T00:01:24.593Z,16.85
2022-11-15T00:03:54.529Z,15.30
2022-11-15T00:06:21.566Z,16.02
2022-11-15T00:08:48.586Z,17.52
2022-11-15T00:11:15.607Z,13.88
2022-11-15T00:13:42.701Z,16.02
2022-11-15T00:16:10.470Z,16.50
2022-11-15T00:18:37.449Z,21.17
2022-11-15T00:21:07.505Z,15.50
2022-11-15T00:23:35.384Z,15.82
2022-11-15T00:26:02.638Z,17.83
2022-11-15T00:28:29.649Z,17.00
2022-11-15T00:31:02.742Z,17.63
2022-11-15T00:33:30.114Z,13.95
2022-11-15T00:36:10.483Z,15.52
2022-11-15T00:38:39.428Z,15.55
2022-11-15T00:41:09.786Z,14.10
2022-11-15T00:43:37.758Z,15.88
2022-11-15T00:46:04.942Z,15.75
2022-11-15T00:48:32.684Z,15.38
2022-11-15T00:50:59.815Z,13.48
2022-11-15T00:53:26.965Z,16.48
2022-11-15T00:55:54.169Z,14.48
2022-11-15T00:58:21.260Z,17.45
2022-11-15T01:00:48.433Z,14.75
2022-11-15T01:03:15.474Z,14.65
2022-11-15T01:05:42.608Z,13.50
2022-11-15T01:08:18.813Z,15.88
2022-11-15T01:10:45.906Z,15.35
2022-11-15T01:13:13.035Z,19.13
2022-11-15T01:15:43.668Z,19.60
2022-11-15T01:18:10.986Z,20.60
2022-11-15T01:20:43.021Z,15.35
2022-11-15T01:23:10.564Z,21.02
2022-11-15T01:25:37.599Z,18.65
2022-11-15T01:28:04.695Z,19.30
2022-11-15T01:30:31.766Z,13.07
2022-11-15T01:32:58.725Z,16.25
2022-11-15T01:35:25.866Z,18.65
2022-11-15T01:37:52.957Z,21.77
2022-11-15T01:40:20.028Z,18.85
2022-11-15T01:42:47.044Z,19.85
2022-11-15T01:45:16.788Z,18.67
2022-11-15T01:47:54.026Z,16.30
2022-11-15T01:50:29.248Z,21.75
2022-11-15T01:52:56.854Z,17.58
2022-11-15T01:55:27.663Z,15.00
2022-11-15T01:58:00.154Z,15.05
2022-11-15T02:00:27.277Z,14.60
2022-11-15T02:02:54.650Z,14.32
2022-11-15T02:05:21.983Z,17.02
2022-11-15T02:07:50.297Z,14.70
2022-11-15T02:10:22.906Z,15.60
2022-11-15T02:12:51.109Z,11.35
2022-11-15T02:15:18.608Z,10.02
2022-11-15T02:18:00.804Z,15.38
2022-11-15T02:21:22.458Z,9.77
2022-11-15T02:23:55.111Z,13.70
2022-11-15T02:26:36.993Z,10.48
2022-11-15T02:29:49.154Z,6.70
2022-11-15T02:32:42.553Z,13.75
2022-11-15T02:35:44.296Z,9.90
2022-11-15T02:38:22.236Z,12.18
2022-11-15T02:41:02.331Z,15.02
2022-11-15T02:44:00.387Z,13.70
2022-11-15T02:46:57.065Z,19.20
2022-11-15T02:49:29.516Z,9.32
2022-11-15T02:51:57.418Z,12.23
2022-11-15T02:54:27.814Z,10.80
2022-11-15T02:56:57.560Z,12.07
2022-11-15T02:59:46.358Z,9.85
2022-11-15T03:02:16.465Z,9.90
2022-11-15T03:04:52.087Z,13.88
2022-11-15T03:07:36.492Z,11.88
2022-11-15T03:10:03.485Z,11.88
2022-11-15T03:12:50.451Z,15.43
2022-11-15T03:15:38.103Z,10.95
2022-11-15T03:18:19.336Z,14.27
2022-11-15T03:20:47.252Z,9.80
2022-11-15T03:23:14.862Z,8.50
2022-11-15T03:25:50.049Z,9.07
2022-11-15T03:28:24.302Z,11.45
2022-11-15T03:30:54.927Z,7.60
2022-11-15T03:33:23.366Z,6.68
2022-11-15T03:35:51.540Z,11.45
2022-11-15T03:38:27.264Z,9.07
2022-11-15T03:41:02.926Z,8.77
2022-11-15T03:43:44.929Z,6.78
2022-11-15T03:46:25.739Z,10.07
2022-11-15T03:48:58.268Z,7.50
2022-11-15T03:51:25.778Z,7.90
2022-11-15T03:53:53.185Z,7.38
2022-11-15T03:56:20.358Z,6.80
2022-11-15T03:58:47.568Z,7.43
2022-11-15T04:01:14.600Z,9.38
2022-11-15T04:03:41.689Z,8.82
2022-11-15T04:06:09.203Z,9.20
2022-11-15T04:08:36.310Z,9.45
2022-11-15T04:11:03.329Z,8.65
2022-11-15T04:13:31.059Z,11.10
2022-11-15T04:15:58.267Z,10.18
2022-11-15T04:18:25.602Z,7.60
2022-11-15T04:21:11.146Z,10.07
2022-11-15T04:23:56.673Z,12.43
2022-11-15T04:26:24.469Z,7.70
2022-11-15T04:29:10.414Z,7.85
2022-11-15T04:31:37.853Z,6.85
2022-11-15T04:34:05.488Z,6.85
2022-11-15T04:36:51.354Z,9.68
2022-11-15T04:39:18.554Z,12.32
2022-11-15T04:41:45.599Z,10.38
2022-11-15T04:44:12.652Z,13.15
2022-11-15T04:46:39.717Z,7.40
2022-11-15T04:49:06.708Z,11.85
2022-11-15T04:51:33.808Z,7.13
2022-11-15T04:54:00.943Z,7.68
2022-11-15T04:56:28.015Z,5.95
2022-11-15T04:58:55.021Z,7.75
2022-11-15T05:01:22.050Z,7.78
2022-11-15T05:04:07.600Z,6.35
2022-11-15T05:06:34.612Z,9.45
2022-11-15T05:09:01.658Z,9.10
2022-11-15T05:11:28.745Z,5.63
2022-11-15T05:13:56.254Z,8.98
2022-11-15T05:16:23.848Z,6.68
2022-11-15T05:18:55.345Z,5.32
2022-11-15T05:21:22.913Z,3.97
2022-11-15T05:23:49.982Z,5.20
2022-11-15T05:26:19.510Z,5.97
2022-11-15T05:28:46.877Z,5.05
2022-11-15T05:31:16.505Z,8.32
2022-11-15T05:33:45.581Z,6.30
2022-11-15T05:36:36.099Z,2.95
2022-11-15T05:39:03.378Z,6.65
2022-11-15T05:41:38.477Z,7.72
2022-11-15T05:44:08.301Z,5.72
2022-11-15T05:46:36.719Z,6.30
2022-11-15T05:49:05.615Z,5.40
2022-11-15T05:51:32.742Z,8.23
2022-11-15T05:54:00.137Z,6.57
2022-11-15T05:56:27.403Z,5.10
2022-11-15T05:58:59.523Z,3.70
2022-11-15T06:01:28.069Z,4.63
2022-11-15T06:03:55.335Z,2.97
2022-11-15T06:06:22.380Z,9.27
2022-11-15T06:08:49.406Z,7.18
2022-11-15T06:11:20.390Z,6.68
2022-11-15T06:14:00.868Z,5.18
2022-11-15T06:16:27.945Z,5.82
2022-11-15T06:18:55.007Z,13.57
2022-11-15T06:21:22.180Z,4.13
2022-11-15T06:23:49.271Z,10.07
2022-11-15T06:26:16.422Z,7.45
2022-11-15T06:28:43.433Z,6.18
2022-11-15T06:31:13.062Z,4.95
2022-11-15T06:33:40.920Z,7.10
2022-11-15T06:36:16.119Z,8.57
2022-11-15T06:38:47.749Z,10.23
2022-11-15T06:41:15.600Z,10.80
2022-11-15T06:43:42.750Z,14.30
2022-11-15T06:46:10.449Z,5.30
2022-11-15T06:48:37.700Z,9.07
2022-11-15T06:51:06.088Z,10.00
2022-11-15T06:53:34.091Z,7.13
2022-11-15T06:56:03.244Z,6.55
2022-11-15T06:58:30.605Z,10.50
2022-11-15T07:01:06.907Z,13.60
2022-11-15T07:03:37.296Z,14.52
2022-11-15T07:06:07.518Z,11.73
2022-11-15T07:08:35.992Z,9.95
2022-11-15T07:11:05.517Z,13.57
2022-11-15T07:13:36.779Z,10.90
2022-11-15T07:16:08.917Z,9.15
2022-11-15T07:18:40.243Z,22.40
2022-11-15T07:21:10.845Z,8.68
2022-11-15T07:23:39.426Z,12.52
2022-11-15T07:26:07.021Z,12.95
2022-11-15T07:28:34.476Z,9.20
2022-11-15T07:31:09.824Z,9.18
2022-11-15T07:33:37.420Z,9.30
2022-11-15T07:36:06.708Z,7.28
2022-11-15T07:38:41.069Z,6.88
2022-11-15T07:41:10.241Z,12.55
2022-11-15T07:43:37.405Z,9.52
2022-11-15T07:46:10.811Z,9.85
2022-11-15T07:48:45.298Z,10.27
2022-11-15T07:51:17.237Z,9.23
2022-11-15T07:53:45.418Z,8.80
2022-11-15T07:56:13.470Z,11.43
2022-11-15T07:58:40.685Z,7.05
2022-11-15T08:01:10.345Z,11.55
2022-11-15T08:03:38.272Z,6.82
2022-11-15T08:06:06.108Z,11.55
2022-11-15T08:08:33.201Z,9.02
2022-11-15T08:11:00.717Z,9.82
2022-11-15T08:13:27.841Z,9.07
2022-11-15T08:16:03.033Z,11.60
2022-11-15T08:18:30.244Z,8.73
2022-11-15T08:21:01.154Z,12.60
2022-11-15T08:23:29.112Z,14.68
2022-11-15T08:26:02.416Z,9.85
2022-11-15T08:28:29.899Z,7.05
2022-11-15T08:30:57.195Z,7.97
2022-11-15T08:33:24.633Z,13.23
2022-11-15T08:35:51.745Z,6.18
2022-11-15T08:38:18.810Z,6.13
2022-11-15T08:40:45.858Z,6.93
2022-11-15T08:43:12.955Z,8.25
2022-11-15T08:45:40.019Z,9.80
2022-11-15T08:48:07.215Z,9.40
2022-11-15T08:50:34.374Z,7.97
2022-11-15T08:53:11.540Z,6.57
2022-11-15T08:55:39.416Z,7.45
2022-11-15T08:58:06.648Z,8.98
2022-11-15T09:00:34.722Z,8.57
2022-11-15T09:03:05.984Z,5.70
2022-11-15T09:05:33.316Z,12.95
2022-11-15T09:08:00.842Z,11.98
2022-11-15T09:10:29.218Z,11.02
2022-11-15T09:12:58.472Z,9.18
2022-11-15T09:15:25.685Z,5.97
2022-11-15T09:17:52.664Z,7.40
2022-11-15T09:20:19.782Z,5.95
2022-11-15T09:22:47.091Z,9.07
2022-11-15T09:25:14.170Z,6.70
2022-11-15T09:27:41.228Z,5.65
2022-11-15T09:30:08.671Z,8.85
2022-11-15T09:32:39.228Z,9.98
2022-11-15T09:35:06.974Z,8.02
2022-11-15T09:37:34.196Z,8.65
2022-11-15T09:40:01.211Z,11.27
2022-11-15T09:42:46.497Z,7.50
2022-11-15T09:45:29.978Z,15.52
2022-11-15T09:48:13.319Z,7.57
2022-11-15T09:50:48.064Z,13.30
2022-11-15T09:54:18.690Z,12.88
2022-11-15T09:56:47.528Z,10.10
2022-11-15T09:59:35.549Z,9.50
2022-11-15T10:02:24.596Z,10.52
2022-11-15T10:04:53.135Z,8.82
2022-11-15T10:07:20.163Z,7.90
2022-11-15T10:10:10.750Z,15.20
2022-11-15T10:12:37.828Z,9.57
2022-11-15T10:15:13.204Z,12.55
2022-11-15T10:17:46.605Z,9.15
2022-11-15T10:20:18.319Z,11.43
2022-11-15T10:22:58.048Z,10.90
2022-11-15T10:25:30.834Z,10.55
2022-11-15T10:28:18.540Z,6.07
2022-11-15T10:30:48.586Z,20.13
2022-11-15T10:33:39.517Z,11.73
2022-11-15T10:36:09.639Z,11.82
2022-11-15T10:39:05.743Z,15.57
2022-11-15T10:41:37.503Z,17.10
2022-11-15T10:44:25.492Z,17.70
2022-11-15T10:47:04.389Z,13.70
2022-11-15T10:49:34.059Z,14.93
2022-11-15T10:52:01.050Z,20.90
2022-11-15T10:54:48.478Z,18.20
2022-11-15T10:57:17.992Z,23.95
2022-11-15T10:59:55.835Z,15.73
2022-11-15T11:02:46.249Z,25.27
2022-11-15T11:05:42.311Z,28.25
2022-11-15T11:08:12.675Z,24.52
2022-11-15T11:11:01.374Z,18.80
2022-11-15T11:13:37.451Z,14.88
2022-11-15T11:16:16.601Z,23.88
2022-11-15T11:19:09.162Z,22.92
2022-11-15T11:22:00.513Z,23.40
2022-11-15T11:24:33.817Z,34.28
2022-11-15T11:27:27.088Z,24.85
2022-11-15T11:30:15.580Z,54.58
2022-11-15T11:33:00.755Z,45.65
2022-11-15T11:35:46.216Z,53.83
2022-11-15T11:38:31.428Z,56.97
2022-11-15T11:41:17.189Z,55.42
2022-11-15T11:43:49.773Z,30.30
2022-11-15T11:46:29.135Z,24.83
2022-11-15T11:49:19.370Z,40.65
2022-11-15T11:51:51.540Z,33.97
2022-11-15T11:54:40.069Z,45.08
2022-11-15T11:57:35.401Z,35.65
2022-11-15T12:00:22.303Z,21.25
2022-11-15T12:03:23.490Z,26.33
2022-11-15T12:06:02.348Z,37.03
2022-11-15T12:08:41.534Z,32.10
2022-11-15T12:11:18.734Z,37.55
2022-11-15T12:13:50.597Z,43.83
2022-11-15T12:16:28.985Z,23.35
2022-11-15T12:19:02.203Z,21.75
2022-11-15T12:21:29.148Z,14.13
2022-11-15T12:24:05.587Z,35.05
2022-11-15T12:26:55.975Z,26.40
2022-11-15T12:29:45.535Z,27.35
2022-11-15T12:32:25.937Z,19.80
2022-11-15T12:34:54.208Z,21.35
2022-11-15T12:37:39.446Z,21.65
2022-11-15T12:40:21.156Z,29.98
2022-11-15T12:43:14.054Z,24.50
2022-11-15T12:45:44.067Z,21.45
2022-11-15T12:48:17.288Z,26.15
2022-11-15T12:50:56.013Z,26.23
2022-11-15T12:53:26.167Z,29.15
2022-11-15T12:56:17.933Z,32.65
2022-11-15T12:58:53.861Z,44.55
2022-11-15T13:01:38.917Z,54.25
2022-11-15T13:04:27.583Z,60.90
2022-11-15T13:07:06.330Z,33.78
2022-11-15T13:09:33.365Z,48.60
2022-11-15T13:12:03.061Z,60.33
2022-11-15T13:14:40.626Z,45.67
2022-11-15T13:17:28.355Z,31.95
2022-11-15T13:20:07.624Z,40.50
2022-11-15T13:23:11.338Z,45.47
2022-11-15T13:25:41.211Z,53.08
2022-11-15T13:28:11.213Z,57.25
2022-11-15T13:30:42.672Z,80.63
2022-11-15T13:33:15.915Z,99.45
2022-11-15T13:35:47.974Z,87.38
2022-11-15T13:38:34.332Z,51.45
2022-11-15T13:41:15.657Z,63.25
2022-11-15T13:43:42.709Z,145.70
2022-11-15T13:46:21.416Z,139.07
2022-11-15T13:48:53.925Z,102.05
2022-11-15T13:51:30.233Z,101.60
2022-11-15T13:54:07.854Z,77.97
2022-11-15T13:56:35.563Z,52.90
2022-11-15T13:59:10.905Z,55.42
2022-11-15T14:01:38.190Z,49.30
2022-11-15T14:04:05.444Z,48.53
2022-11-15T14:06:32.949Z,49.17
2022-11-15T14:09:12.426Z,38.95
2022-11-15T14:11:51.355Z,39.90
2022-11-15T14:14:22.090Z,44.85
2022-11-15T14:16:53.380Z,37.83
2022-11-15T14:19:23.171Z,55.95
2022-11-15T14:22:13.089Z,44.15
2022-11-15T14:24:40.709Z,39.00
2022-11-15T14:27:28.461Z,52.40
2022-11-15T14:29:56.417Z,60.15
2022-11-15T14:32:25.129Z,42.70
2022-11-15T14:34:59.661Z,49.45
2022-11-15T14:37:29.311Z,59.67
2022-11-15T14:39:56.624Z,62.60
2022-11-15T14:42:24.675Z,40.50
2022-11-15T14:44:52.503Z,49.88
2022-11-15T14:47:19.930Z,47.10
2022-11-15T14:49:47.307Z,45.40
2022-11-15T14:52:32.594Z,52.17
2022-11-15T14:55:02.595Z,70.50
2022-11-15T14:57:30.910Z,51.10
2022-11-15T14:59:58.174Z,29.33
2022-11-15T15:02:27.975Z,31.05
2022-11-15T15:04:55.509Z,39.55
2022-11-15T15:07:23.449Z,36.85
2022-11-15T15:09:50.573Z,40.10
2022-11-15T15:12:22.545Z,47.35
2022-11-15T15:14:50.974Z,37.55
2022-11-15T15:17:18.760Z,33.40
2022-11-15T15:19:45.745Z,34.65
2022-11-15T15:22:18.506Z,34.95
2022-11-15T15:24:47.005Z,38.07
2022-11-15T15:27:14.379Z,31.48
2022-11-15T15:29:41.949Z,30.92
2022-11-15T15:32:10.206Z,40.33
2022-11-15T15:34:37.380Z,48.58
2022-11-15T15:37:24.980Z,38.30
2022-11-15T15:39:57.790Z,29.73
2022-11-15T15:42:24.918Z,31.40
2022-11-15T15:44:52.628Z,29.17
2022-11-15T15:47:23.700Z,39.45
2022-11-15T15:49:52.000Z,37.55
2022-11-15T15:52:19.548Z,25.38
2022-11-15T15:54:46.546Z,22.13
2022-11-15T15:57:15.347Z,30.58
2022-11-15T15:59:42.397Z,42.45
2022-11-15T16:02:16.200Z,47.92
2022-11-15T16:04:43.208Z,43.85
2022-11-15T16:07:18.930Z,45.78
2022-11-15T16:10:04.354Z,51.15
2022-11-15T16:12:34.684Z,51.55
2022-11-15T16:15:02.821Z,48.47
2022-11-15T16:17:40.903Z,39.10
2022-11-15T16:20:08.369Z,47.28
2022-11-15T16:22:35.486Z,38.63
2022-11-15T16:25:02.852Z,36.53
2022-11-15T16:27:29.886Z,38.15
2022-11-15T16:29:56.874Z,37.63
2022-11-15T16:32:24.625Z,37.10
2022-11-15T16:34:51.684Z,32.08
2022-11-15T16:37:25.144Z,40.75
2022-11-15T16:39:53.956Z,34.90
2022-11-15T16:42:24.169Z,36.88
2022-11-15T16:44:51.200Z,35.78
2022-11-15T16:47:20.299Z,41.60
2022-11-15T16:49:47.810Z,39.70
2022-11-15T16:52:20.155Z,43.42
2022-11-15T16:54:48.295Z,41.92
2022-11-15T16:57:16.887Z,45.03
2022-11-15T16:59:43.835Z,32.78
2022-11-15T17:02:13.842Z,35.33
2022-11-15T17:04:41.189Z,49.83
2022-11-15T17:07:09.174Z,34.88
2022-11-15T17:09:36.267Z,44.83
2022-11-15T17:12:03.252Z,41.10
2022-11-15T17:14:30.309Z,45.88
2022-11-15T17:16:57.447Z,44.15
2022-11-15T17:19:24.484Z,45.17
2022-11-15T17:21:54.681Z,43.17
2022-11-15T17:24:21.696Z,62.03
2022-11-15T17:26:48.750Z,70.78
2022-11-15T17:29:16.140Z,48.00
2022-11-15T17:31:43.160Z,55.20
2022-11-15T17:34:10.148Z,40.85
2022-11-15T17:36:37.317Z,48.53
2022-11-15T17:39:05.451Z,35.20
2022-11-15T17:41:32.583Z,39.13
2022-11-15T17:44:00.659Z,42.97
2022-11-15T17:46:28.780Z,37.42
2022-11-15T17:48:57.382Z,32.05
2022-11-15T17:51:25.057Z,36.50
2022-11-15T17:53:53.310Z,28.42
2022-11-15T17:56:22.507Z,32.25
2022-11-15T17:58:58.007Z,32.35
2022-11-15T18:01:36.061Z,34.40
2022-11-15T18:04:06.258Z,39.33
2022-11-15T18:06:34.856Z,29.50
2022-11-15T18:09:03.105Z,43.70
2022-11-15T18:11:39.551Z,40.92
2022-11-15T18:14:09.268Z,43.33
2022-11-15T18:16:37.798Z,53.42
2022-11-15T18:19:13.504Z,58.08
2022-11-15T18:21:57.641Z,31.92
2022-11-15T18:24:31.381Z,43.97
2022-11-15T18:29:26.707Z,40.38
2022-11-15T18:31:58.161Z,37.03
2022-11-15T18:34:32.497Z,27.70
2022-11-15T18:37:01.032Z,33.42
2022-11-15T18:39:28.014Z,54.53
2022-11-15T18:41:55.064Z,40.17
2022-11-15T18:44:22.163Z,34.35
2022-11-15T18:46:49.496Z,28.77
2022-11-15T18:49:17.323Z,44.17
2022-11-15T18:51:44.918Z,46.63
2022-11-15T18:54:14.695Z,30.15
2022-11-15T18:56:44.416Z,32.10
2022-11-15T18:59:11.665Z,30.15
2022-11-15T19:01:41.014Z,26.58
2022-11-15T19:04:13.170Z,32.75
2022-11-15T19:06:42.527Z,34.55
2022-11-15T19:09:12.955Z,36.33
2022-11-15T19:11:40.471Z,28.65
2022-11-15T19:14:11.384Z,24.17
2022-11-15T19:16:45.190Z,26.73
2022-11-15T19:19:15.303Z,27.30
2022-11-15T19:21:42.896Z,29.45
2022-11-15T19:24:13.433Z,29.08
2022-11-15T19:26:40.625Z,24.67
2022-11-15T19:29:14.300Z,23.27
2022-11-15T19:31:42.215Z,26.17
2022-11-15T19:34:09.645Z,20.52
2022-11-15T19:36:39.666Z,35.47
2022-11-15T19:39:10.234Z,23.65
2022-11-15T19:41:39.776Z,22.70
2022-11-15T19:44:07.158Z,16.30
2022-11-15T19:46:34.612Z,28.05
2022-11-15T19:49:01.713Z,17.85
2022-11-15T19:51:31.250Z,20.38
2022-11-15T19:54:01.637Z,18.52
2022-11-15T19:56:28.707Z,17.80
2022-11-15T19:58:56.867Z,23.08
2022-11-15T20:01:32.017Z,22.88
2022-11-15T20:04:00.596Z,19.40
2022-11-15T20:06:27.757Z,20.17
2022-11-15T20:08:54.873Z,20.63
2022-11-15T20:11:22.303Z,16.85
2022-11-15T20:13:49.989Z,26.58
2022-11-15T20:16:22.923Z,20.85
2022-11-15T20:18:51.152Z,19.67
2022-11-15T20:21:18.223Z,23.13
2022-11-15T20:23:47.326Z,23.98
2022-11-15T20:26:15.480Z,28.23
2022-11-15T20:28:44.276Z,22.05
2022-11-15T20:31:12.451Z,28.48
2022-11-15T20:33:40.012Z,24.80
2022-11-15T20:36:10.631Z,25.40
2022-11-15T20:38:38.126Z,25.83
2022-11-15T20:41:05.351Z,17.10
2022-11-15T20:43:32.540Z,18.38
2022-11-15T20:45:59.780Z,20.63
2022-11-15T20:48:27.482Z,15.70
2022-11-15T20:51:14.890Z,15.80
2022-11-15T20:53:43.230Z,15.27
2022-11-15T20:56:15.878Z,14.02
2022-11-15T20:58:44.940Z,12.77
2022-11-15T21:01:15.428Z,12.82
2022-11-15T21:03:43.136Z,11.82
2022-11-15T21:06:11.559Z,14.20
2022-11-15T21:08:57.331Z,18.00
2022-11-15T21:11:43.380Z,14.77
2022-11-15T21:14:10.574Z,10.95
2022-11-15T21:16:39.100Z,11.88
2022-11-15T21:19:07.147Z,13.13
2022-11-15T21:21:35.987Z,12.30
2022-11-15T21:24:10.220Z,13.43
2022-11-15T21:26:37.984Z,17.30
2022-11-15T21:29:05.420Z,23.90
2022-11-15T21:31:32.643Z,25.95
2022-11-15T21:34:03.375Z,15.23
2022-11-15T21:36:30.990Z,16.40
2022-11-15T21:38:58.130Z,15.38
2022-11-15T21:41:25.266Z,13.10
2022-11-15T21:43:52.379Z,14.80
2022-11-15T21:46:19.439Z,13.52
2022-11-15T21:48:46.509Z,11.55
2022-11-15T21:51:13.752Z,20.92
2022-11-15T21:53:41.078Z,13.32
2022-11-15T21:56:08.842Z,13.80
2022-11-15T21:58:36.663Z,14.48
2022-11-15T22:01:23.360Z,23.58
2022-11-15T22:03:50.962Z,20.85
2022-11-15T22:06:18.514Z,16.00
2022-11-15T22:08:46.617Z,13.82
2022-11-15T22:11:14.717Z,12.52
2022-11-15T22:13:42.392Z,13.30
2022-11-15T22:16:10.278Z,18.98
2022-11-15T22:18:38.409Z,15.98
2022-11-15T22:21:11.076Z,14.82
2022-11-15T22:23:38.721Z,16.73
2022-11-15T22:26:06.522Z,12.88
2022-11-15T22:28:34.155Z,13.35
2022-11-15T22:31:01.607Z,18.30
2022-11-15T22:33:30.326Z,17.88
2022-11-15T22:35:57.901Z,14.32
2022-11-15T22:38:25.542Z,14.45
2022-11-15T22:40:52.966Z,11.52
2022-11-15T22:43:21.811Z,19.95
2022-11-15T22:45:51.511Z,13.07
2022-11-15T22:48:20.845Z,17.83
2022-11-15T22:50:47.986Z,12.50
2022-11-15T22:53:15.514Z,18.08
2022-11-15T22:55:42.984Z,15.38
2022-11-15T22:58:10.735Z,14.82
2022-11-15T23:00:37.852Z,14.63
2022-11-15T23:03:05.047Z,10.60
2022-11-15T23:05:32.707Z,13.48
2022-11-15T23:07:59.720Z,17.20
2022-11-15T23:10:45.073Z,19.40
2022-11-15T23:13:16.542Z,16.27
2022-11-15T23:16:04.321Z,15.95
2022-11-15T23:18:41.978Z,17.35
2022-11-15T23:21:10.452Z,15.18
2022-11-15T23:23:37.502Z,15.63
2022-11-15T23:26:05.340Z,16.00
2022-11-15T23:28:34.054Z,13.18
2022-11-15T23:31:26.782Z,11.23
2022-11-15T23:33:59.976Z,12.32
2022-11-15T23:36:28.481Z,10.35
2022-11-15T23:38:56.121Z,19.38
2022-11-15T23:41:26.326Z,11.23
2022-11-15T23:43:53.430Z,22.92
2022-11-15T23:46:20.435Z,7.57
2022-11-15T23:48:47.627Z,6.18
2022-11-15T23:51:15.282Z,15.57
2022-11-15T23:53:43.754Z,12.75
2022-11-15T23:56:13.596Z,14.45
2022-11-15T23:58:41.692Z,9.98
